Time;durP1;ratioP1;P1;durP2;ratioP2;P2;SDS_P1;SDS_P2;PMS_P1;PMS_P2;Temp;Humidity;BMP_temperature;BMP_pressure;BME280_temperature;BME280_humidity;BME280_pressure;Samples;Min_cycle;Max_cycle;Signal;HPM_P1;HPM_P2
2023/10/16 00:00:32;;;;;;;3.20;2.77;;;;;;;12.57;81.11;94713.31;5096454;28;20489;-78
2023/10/16 00:03:00;;;;;;;2.50;2.30;;;;;;;12.61;81.79;94722.59;5096565;28;20451;-77
2023/10/16 00:05:31;;;;;;;4.43;2.03;;;;;;;12.47;80.04;94717.81;5096470;28;20445;-78
2023/10/16 00:08:00;;;;;;;2.67;2.47;;;;;;;12.47;81.07;94710.75;5096386;28;20448;-78
2023/10/16 00:10:28;;;;;;;2.53;2.33;;;;;;;12.41;80.96;94706.88;5096486;28;20458;-79
2023/10/16 00:12:56;;;;;;;2.00;1.90;;;;;;;12.41;81.14;94727.09;5077630;28;20477;-77
2023/10/16 00:15:22;;;;;;;1.90;1.80;;;;;;;12.54;79.74;94722.34;5096329;28;20446;-78
2023/10/16 00:17:50;;;;;;;2.00;1.90;;;;;;;12.51;78.43;94725.28;5096189;28;20514;-77
2023/10/16 00:20:19;;;;;;;2.27;1.87;;;;;;;12.37;79.40;94720.47;5096183;28;20501;-78
2023/10/16 00:22:45;;;;;;;1.93;1.80;;;;;;;12.30;79.01;94722.84;5096462;28;20458;-77
2023/10/16 00:25:15;;;;;;;2.50;1.73;;;;;;;12.26;80.10;94725.94;5096103;28;20445;-77
2023/10/16 05:20:45;;;;;;;7.30;6.60;;;;;;;10.56;75.90;95131.41;5086041;28;20233;-78
2023/10/16 06:14:11;;;;;;;8.90;6.30;;;;;;;10.72;71.86;95218.47;5031211;28;20413;-77
2023/10/16 06:17:16;;;;;;;6.37;5.60;;;;;;;10.76;70.24;95225.13;5030719;28;20442;-77
2023/10/16 06:20:21;;;;;;;5.33;4.87;;;;;;;10.74;68.99;95231.47;5030569;28;20498;-77
2023/10/16 06:23:28;;;;;;;8.83;6.13;;;;;;;10.83;72.51;95236.81;5032467;28;20454;-77
2023/10/16 06:26:32;;;;;;;5.80;5.30;;;;;;;10.82;71.20;95236.94;5093308;28;20496;-77
2023/10/16 06:29:40;;;;;;;6.47;5.63;;;;;;;10.76;69.55;95232.19;5093204;28;20440;-77
2023/10/16 06:32:44;;;;;;;12.03;6.13;;;;;;;10.76;69.11;95237.44;5093330;28;20823;-77
2023/10/16 06:35:48;;;;;;;5.80;5.20;;;;;;;10.75;67.95;95241.00;5093035;28;20443;-78
2023/10/16 06:38:52;;;;;;;5.50;5.00;;;;;;;10.83;68.63;95234.19;5093098;28;20813;-77
2023/10/16 06:41:56;;;;;;;6.30;5.40;;;;;;;10.87;68.80;95242.63;5093199;28;20493;-77
2023/10/16 06:45:07;;;;;;;8.10;5.40;;;;;;;10.94;68.95;95242.97;5093012;28;20454;-78
2023/10/16 06:48:14;;;;;;;6.43;4.90;;;;;;;10.92;68.78;95243.09;5092781;28;20435;-77
2023/10/16 06:51:18;;;;;;;5.63;4.53;;;;;;;10.96;67.77;95248.94;5092678;28;20938;-77
2023/10/16 06:54:22;;;;;;;6.30;5.27;;;;;;;11.08;66.27;95259.28;5092783;28;20944;-77
2023/10/16 06:57:26;;;;;;;4.90;4.50;;;;;;;11.35;66.89;95255.38;5092677;28;20462;-78
2023/10/16 07:00:33;;;;;;;7.57;4.97;;;;;;;11.71;64.24;95262.84;5092339;28;20479;-77
2023/10/16 07:03:39;;;;;;;5.57;4.23;;;;;;;11.89;64.67;95270.22;5092386;28;20435;-77
2023/10/16 07:06:44;;;;;;;5.60;5.10;;;;;;;11.85;62.91;95274.03;5091811;28;20443;-78
2023/10/16 07:09:48;;;;;;;4.80;4.33;;;;;;;11.82;63.32;95284.81;5092172;28;20447;-77
2023/10/16 07:12:58;;;;;;;6.73;4.10;;;;;;;11.78;62.33;95285.06;5092246;28;20454;-77
2023/10/16 07:16:02;;;;;;;10.67;4.33;;;;;;;11.98;65.61;95274.69;5092229;28;20500;-77
2023/10/16 07:19:07;;;;;;;7.37;4.27;;;;;;;12.16;61.93;95272.31;5092338;28;20595;-78
2023/10/16 07:22:16;;;;;;;8.57;4.10;;;;;;;12.46;61.77;95279.38;5091850;28;20447;-77
2023/10/16 07:25:25;;;;;;;6.00;4.37;;;;;;;12.80;61.21;95278.13;5092099;28;20538;-77
2023/10/16 07:28:28;;;;;;;4.57;4.03;;;;;;;13.11;58.54;95270.16;5091884;28;20443;-77
2023/10/16 07:31:32;;;;;;;4.97;4.57;;;;;;;13.09;58.29;95256.28;5092027;28;20453;-78
2023/10/16 07:34:38;;;;;;;4.50;3.93;;;;;;;13.02;58.54;95254.19;5072859;28;20447;-78
2023/10/16 07:37:48;;;;;;;11.43;4.10;;;;;;;13.04;57.83;95269.88;5092195;28;20452;-77
2023/10/16 07:40:52;;;;;;;6.30;4.07;;;;;;;13.09;56.66;95272.91;5091813;28;20528;-77
2023/10/16 07:43:57;;;;;;;10.90;4.93;;;;;;;13.21;56.37;95281.56;5091914;28;20461;-77
2023/10/16 07:47:01;;;;;;;8.10;4.00;;;;;;;13.38;56.30;95272.16;5091629;28;20445;-77
2023/10/16 07:50:07;;;;;;;4.07;3.77;;;;;;;13.56;55.85;95276.59;5091829;28;20852;-77
2023/10/16 07:53:17;;;;;;;6.13;4.27;;;;;;;13.65;54.83;95269.66;5091710;28;20484;-77
2023/10/16 07:56:25;;;;;;;5.87;3.50;;;;;;;13.89;54.29;95279.78;5092252;28;20481;-77
2023/10/16 07:59:35;;;;;;;6.27;4.63;;;;;;;14.09;52.62;95262.94;5091402;28;21014;-78
2023/10/16 08:02:44;;;;;;;4.60;4.23;;;;;;;13.99;56.16;95267.41;5091866;28;20822;-78
2023/10/16 08:05:49;;;;;;;7.57;4.10;;;;;;;14.15;50.68;95251.81;5091466;28;20508;-77
2023/10/16 08:09:29;;;;;;;4.67;4.30;;;;;;;14.16;50.85;95253.47;5091802;28;20449;-76
2023/10/16 08:12:19;;;;;;;6.23;3.60;;;;;;;14.11;52.07;95247.78;5091451;28;20439;-77
2023/10/16 08:15:25;;;;;;;4.73;3.80;;;;;;;14.18;50.69;95245.44;5091624;28;20871;-77
2023/10/16 08:18:29;;;;;;;4.30;3.73;;;;;;;14.22;50.87;95247.63;5091991;28;20444;-78
2023/10/16 08:21:39;;;;;;;5.00;3.80;;;;;;;14.26;49.89;95256.09;5095636;28;21004;-77
2023/10/16 08:24:57;;;;;;;8.80;3.83;;;;;;;14.26;49.91;95254.28;5095431;28;20444;-78
2023/10/16 08:28:18;;;;;;;5.23;4.03;;;;;;;14.40;48.97;95247.69;5095456;28;20457;-77
2023/10/16 08:31:25;;;;;;;3.97;3.67;;;;;;;14.61;49.10;95252.81;5076164;28;20985;-77
2023/10/16 08:34:31;;;;;;;6.23;3.43;;;;;;;14.61;47.77;95263.38;5095193;28;20443;-78
2023/10/16 08:37:35;;;;;;;3.93;3.57;;;;;;;14.67;49.80;95272.50;5075984;28;20452;-77
2023/10/16 08:40:41;;;;;;;3.80;3.30;;;;;;;14.84;48.33;95254.09;5075956;28;20489;-77
2023/10/16 08:43:54;;;;;;;11.80;4.43;;;;;;;15.09;44.44;95267.59;5095343;28;20506;-77
2023/10/16 08:50:25;;;;;;;6.23;2.83;;;;;;;15.24;44.12;95252.03;5052389;28;20522;-77
2023/10/16 08:53:32;;;;;;;2.83;2.73;;;;;;;15.19;44.38;95253.31;5052606;28;20448;-77
2023/10/16 08:56:38;;;;;;;4.97;3.00;;;;;;;15.25;43.78;95264.28;5052252;28;20450;-78
2023/10/16 08:59:42;;;;;;;5.00;3.83;;;;;;;15.27;43.80;95251.72;5052103;28;20576;-77
2023/10/16 09:02:45;;;;;;;7.70;2.63;;;;;;;15.36;44.25;95264.91;5051938;28;20453;-77
2023/10/16 09:05:50;;;;;;;4.03;3.00;;;;;;;15.69;44.75;95263.44;5052097;28;20453;-77
2023/10/16 09:08:54;;;;;;;3.23;2.93;;;;;;;15.77;44.33;95262.66;5052084;28;20435;-77
2023/10/16 09:12:03;;;;;;;4.43;3.37;;;;;;;15.70;42.93;95264.25;5051989;28;20481;-77
2023/10/16 09:15:09;;;;;;;3.47;3.17;;;;;;;15.77;43.59;95262.66;5052443;28;20533;-77
2023/10/16 09:18:13;;;;;;;3.27;2.97;;;;;;;15.55;42.71;95258.63;5051529;28;20451;-77
2023/10/16 09:21:22;;;;;;;14.90;4.43;;;;;;;15.47;44.61;95251.44;5051318;28;20493;-77
2023/10/16 09:24:28;;;;;;;3.30;2.97;;;;;;;15.45;42.57;95258.69;5051622;28;20529;-77
2023/10/16 09:27:36;;;;;;;3.30;3.00;;;;;;;15.66;42.17;95255.78;5074939;28;20443;-77
2023/10/16 09:30:42;;;;;;;4.93;2.83;;;;;;;15.72;42.85;95260.47;5093924;28;20448;-77
2023/10/16 09:33:48;;;;;;;4.03;3.10;;;;;;;15.78;42.02;95264.31;5094476;28;20522;-77
2023/10/16 09:37:15;;;;;;;3.53;2.73;;;;;;;15.94;42.01;95256.53;5094160;28;20929;-77
2023/10/16 09:43:41;;;;;;;5.83;3.60;;;;;;;16.02;41.29;95246.00;5093892;28;20505;-77
2023/10/16 09:46:54;;;;;;;4.97;2.50;;;;;;;16.13;40.65;95236.94;5093938;28;20449;-77
2023/10/16 09:49:59;;;;;;;3.63;2.60;;;;;;;16.20;40.60;95238.00;5093572;28;20530;-77
2023/10/16 09:53:03;;;;;;;5.83;3.63;;;;;;;16.34;40.52;95218.06;5093801;28;20455;-77
2023/10/16 09:56:09;;;;;;;3.60;3.30;;;;;;;16.33;40.94;95216.41;5093526;28;20457;-77
2023/10/16 09:59:13;;;;;;;5.37;3.00;;;;;;;16.21;40.44;95220.31;5093783;28;20445;-77
2023/10/16 10:02:17;;;;;;;5.53;3.43;;;;;;;16.27;41.02;95227.63;5093410;28;20442;-77
2023/10/16 10:05:23;;;;;;;4.03;3.73;;;;;;;16.29;40.77;95220.34;5093278;28;20447;-77
2023/10/16 10:08:28;;;;;;;4.63;3.23;;;;;;;16.13;40.78;95215.78;5093371;28;20799;-76
2023/10/16 10:11:39;;;;;;;6.70;3.10;;;;;;;15.98;41.08;95220.00;5093971;28;20434;-76
2023/10/16 10:14:48;;;;;;;5.40;3.20;;;;;;;15.79;42.03;95213.06;5093534;28;20479;-77
2023/10/16 10:17:54;;;;;;;3.33;2.83;;;;;;;15.75;40.85;95207.25;5093292;28;20440;-77
2023/10/16 10:21:01;;;;;;;6.93;2.73;;;;;;;15.82;41.66;95207.44;5093156;28;20489;-77
2023/10/16 10:24:08;;;;;;;4.07;2.70;;;;;;;15.88;41.83;95198.88;5093447;28;20449;-77
2023/10/16 10:27:12;;;;;;;3.80;3.40;;;;;;;15.91;41.06;95192.47;5093319;28;20471;-77
2023/10/16 10:30:18;;;;;;;4.73;3.33;;;;;;;16.02;41.87;95189.56;5093455;28;20464;-77
2023/10/16 10:33:21;;;;;;;6.07;3.50;;;;;;;16.13;41.40;95185.81;5093668;28;20476;-77
2023/10/16 10:36:25;;;;;;;5.80;3.50;;;;;;;16.08;41.04;95176.53;5093306;28;20457;-77
2023/10/16 10:39:39;;;;;;;2.87;2.67;;;;;;;16.20;39.98;95176.28;5092759;28;20533;-77
2023/10/16 10:42:45;;;;;;;6.60;2.77;;;;;;;16.18;40.15;95176.41;5092359;28;20446;-77
2023/10/16 10:45:49;;;;;;;2.50;2.30;;;;;;;16.14;40.15;95177.72;5093098;28;20450;-77
2023/10/16 10:48:54;;;;;;;3.90;2.93;;;;;;;16.03;40.32;95165.59;5092701;28;20449;-77
2023/10/16 10:51:58;;;;;;;3.17;2.80;;;;;;;15.90;40.30;95162.53;5092720;28;20442;-77
2023/10/16 10:55:07;;;;;;;3.23;2.93;;;;;;;15.86;40.43;95171.75;5092709;28;20452;-77
2023/10/16 10:58:13;;;;;;;3.30;3.00;;;;;;;15.84;40.65;95165.78;5092709;28;20448;-77
2023/10/16 11:01:27;;;;;;;11.33;2.87;;;;;;;15.96;40.26;95155.78;5092376;28;20479;-77
2023/10/16 11:04:33;;;;;;;3.43;2.87;;;;;;;16.16;44.58;95159.03;5092514;28;20539;-77
2023/10/16 11:07:45;;;;;;;3.43;2.97;;;;;;;16.18;39.43;95159.69;5092433;28;20445;-77
2023/10/16 11:10:50;;;;;;;3.07;2.50;;;;;;;16.10;39.22;95152.53;5092359;28;20452;-77
2023/10/16 11:13:53;;;;;;;3.03;2.57;;;;;;;16.05;38.43;95160.13;5092672;28;20437;-77
2023/10/16 11:16:58;;;;;;;4.03;2.83;;;;;;;16.09;39.01;95150.88;5092433;28;20446;-77
2023/10/16 11:20:26;;;;;;;3.50;2.73;;;;;;;16.19;40.31;95156.06;5091889;28;20492;-77
2023/10/16 11:23:31;;;;;;;3.50;2.53;;;;;;;15.92;38.60;95144.69;5092320;28;20442;-77
2023/10/16 11:26:37;;;;;;;5.13;3.20;;;;;;;16.16;39.17;95145.78;5092618;28;20533;-77
2023/10/16 11:29:42;;;;;;;3.30;3.00;;;;;;;16.13;38.38;95143.47;5092168;28;20476;-78
2023/10/16 11:32:46;;;;;;;3.60;2.53;;;;;;;16.15;39.57;95147.59;5092350;28;20439;-77
2023/10/16 11:35:50;;;;;;;3.10;2.90;;;;;;;16.02;38.85;95134.81;5092455;28;20450;-78
2023/10/16 11:38:55;;;;;;;2.67;2.30;;;;;;;16.07;38.89;95132.50;5092530;28;20781;-78
2023/10/16 11:42:01;;;;;;;2.53;2.33;;;;;;;16.15;39.09;95146.78;5091958;28;20543;-77
2023/10/16 11:45:09;;;;;;;3.13;2.80;;;;;;;16.21;39.08;95139.06;5092223;28;20453;-77
2023/10/16 11:48:25;;;;;;;3.87;2.43;;;;;;;16.13;39.43;95136.34;5091884;28;20541;-78
2023/10/16 11:51:29;;;;;;;2.60;2.40;;;;;;;16.10;36.34;95137.50;5091791;28;20540;-78
2023/10/16 11:54:33;;;;;;;6.30;2.73;;;;;;;16.12;38.18;95139.97;5095762;28;20433;-78
2023/10/16 11:57:37;;;;;;;2.90;2.20;;;;;;;16.26;38.44;95131.47;5096168;28;20434;-77
2023/10/16 12:00:43;;;;;;;3.10;2.87;;;;;;;16.36;38.72;95124.22;5095932;28;20986;-77
2023/10/16 12:03:47;;;;;;;5.40;2.70;;;;;;;16.25;37.46;95111.25;5095828;28;20454;-78
2023/10/16 12:06:51;;;;;;;3.37;3.07;;;;;;;16.19;38.62;95116.34;5095952;28;20440;-77
2023/10/16 12:09:58;;;;;;;3.50;2.40;;;;;;;16.19;39.04;95114.56;5095970;28;20453;-77
2023/10/16 12:13:02;;;;;;;4.03;2.40;;;;;;;16.26;37.75;95120.88;5095771;28;20455;-77
2023/10/16 12:16:06;;;;;;;4.63;2.80;;;;;;;16.30;37.61;95118.72;5095670;28;20532;-77
2023/10/16 12:19:10;;;;;;;3.03;2.73;;;;;;;16.30;37.57;95116.91;5095696;28;20880;-77
2023/10/16 12:22:19;;;;;;;3.20;2.10;;;;;;;16.15;39.50;95120.28;5095680;28;20486;-77
2023/10/16 12:25:23;;;;;;;3.90;2.50;;;;;;;16.20;38.76;95110.91;5095458;28;20441;-77
2023/10/16 12:28:27;;;;;;;2.27;2.07;;;;;;;16.29;38.54;95114.41;5095504;28;20929;-77
2023/10/16 12:31:32;;;;;;;4.90;2.53;;;;;;;16.37;38.29;95111.78;5095800;28;20457;-78
2023/10/16 12:34:36;;;;;;;7.83;2.90;;;;;;;16.36;38.52;95107.50;5096916;28;20444;-77
2023/10/16 12:37:41;;;;;;;3.03;2.73;;;;;;;16.48;37.33;95108.00;5097160;28;20473;-77
2023/10/16 12:40:45;;;;;;;4.57;3.57;;;;;;;16.57;37.01;95102.59;5097243;28;20519;-78
2023/10/16 12:43:49;;;;;;;2.93;2.50;;;;;;;16.62;36.24;95102.13;5096724;28;20454;-77
2023/10/16 12:46:53;;;;;;;3.77;3.27;;;;;;;16.66;36.73;95091.06;5097522;28;20448;-79
2023/10/16 12:49:58;;;;;;;7.53;3.73;;;;;;;16.77;36.31;95089.06;5097103;28;20937;-78
2023/10/16 12:53:02;;;;;;;4.43;2.70;;;;;;;16.88;36.46;95088.78;5096812;28;20451;-78
2023/10/16 12:56:06;;;;;;;2.60;2.30;;;;;;;16.96;35.60;95091.44;5096857;28;20489;-78
2023/10/16 12:59:11;;;;;;;5.90;2.27;;;;;;;16.77;35.36;95089.94;5097301;28;20447;-77
2023/10/16 13:02:24;;;;;;;2.80;2.50;;;;;;;16.68;34.85;95083.75;5097062;28;20506;-78
2023/10/16 13:05:30;;;;;;;3.67;2.50;;;;;;;16.68;35.39;95083.75;5095870;28;20935;-78
2023/10/16 13:08:34;;;;;;;2.83;2.50;;;;;;;16.71;37.55;95077.31;5095707;28;20539;-78
2023/10/16 13:11:38;;;;;;;3.93;2.60;;;;;;;16.75;33.39;95077.81;5095857;28;20480;-77
2023/10/16 13:14:43;;;;;;;2.67;1.90;;;;;;;16.41;29.50;95091.94;5096237;28;20450;-77
2023/10/16 13:17:48;;;;;;;3.03;1.70;;;;;;;16.33;28.86;95090.09;5096326;28;20450;-77
2023/10/16 13:20:57;;;;;;;3.73;2.33;;;;;;;16.42;33.20;95085.66;5095510;28;20486;-76
2023/10/16 13:24:04;;;;;;;4.13;2.30;;;;;;;16.36;33.42;95081.00;5095105;28;20451;-77
2023/10/16 13:27:08;;;;;;;2.63;2.23;;;;;;;16.29;33.40;95095.88;5094607;28;20486;-76
2023/10/16 13:30:12;;;;;;;2.40;2.20;;;;;;;16.26;34.40;95096.22;5094306;28;20928;-77
2023/10/16 13:33:20;;;;;;;2.47;2.27;;;;;;;16.16;33.60;95098.13;5094460;28;20482;-76
2023/10/16 13:36:24;;;;;;;36.17;3.23;;;;;;;16.30;33.86;95087.78;5097792;28;20460;-78
2023/10/16 13:39:31;;;;;;;4.57;3.63;;;;;;;16.46;33.42;95088.81;5094160;28;20443;-78
2023/10/16 13:42:36;;;;;;;3.40;2.10;;;;;;;16.60;33.62;95081.06;5093948;28;20450;-76
2023/10/16 13:45:40;;;;;;;3.00;2.13;;;;;;;16.58;31.65;95083.06;5093995;28;20453;-78
2023/10/16 13:48:47;;;;;;;2.43;2.20;;;;;;;16.55;28.50;95086.03;5093705;28;20442;-78
2023/10/16 13:51:52;;;;;;;2.20;1.93;;;;;;;16.54;28.14;95086.19;5094190;28;20493;-78
2023/10/16 13:54:56;;;;;;;3.40;2.00;;;;;;;16.43;28.56;95084.66;5093854;28;20969;-78
2023/10/16 13:58:00;;;;;;;3.30;2.57;;;;;;;16.39;27.68;95078.03;5093778;28;20435;-78
2023/10/16 14:01:04;;;;;;;2.80;2.10;;;;;;;16.25;26.72;95078.66;5093778;28;20529;-78
2023/10/16 14:04:13;;;;;;;2.40;1.67;;;;;;;16.34;28.58;95080.34;5093648;28;20431;-78
2023/10/16 14:07:19;;;;;;;2.30;1.90;;;;;;;16.45;29.00;95087.97;5093792;28;20446;-78
2023/10/16 14:10:23;;;;;;;3.80;2.43;;;;;;;16.52;28.39;95081.06;5093583;28;20527;-78
2023/10/16 14:13:28;;;;;;;4.70;2.03;;;;;;;16.54;31.14;95080.91;5093496;28;20846;-78
2023/10/16 14:16:32;;;;;;;7.53;2.17;;;;;;;16.49;26.72;95080.56;5092477;28;20467;-78
2023/10/16 14:19:36;;;;;;;3.70;1.80;;;;;;;16.39;26.33;95083.31;5093574;28;20893;-77
2023/10/16 14:22:47;;;;;;;1.87;1.67;;;;;;;16.24;26.79;95080.47;5093482;28;20486;-77
2023/10/16 14:25:57;;;;;;;2.33;1.50;;;;;;;16.20;26.91;95083.59;5093037;28;20449;-78
2023/10/16 14:29:03;;;;;;;6.67;2.10;;;;;;;16.14;26.38;95082.41;5093362;28;20482;-78
2023/10/16 14:32:09;;;;;;;2.30;2.10;;;;;;;16.17;27.04;95086.56;5093273;28;20449;-78
2023/10/16 14:35:13;;;;;;;1.97;1.70;;;;;;;15.97;26.26;95083.34;5092829;28;20779;-76
2023/10/16 14:38:19;;;;;;;9.53;2.20;;;;;;;15.96;26.13;95084.31;5093308;28;20448;-77
2023/10/16 14:41:23;;;;;;;4.13;2.00;;;;;;;16.00;27.13;95080.38;5093271;28;20483;-78
2023/10/16 14:44:27;;;;;;;4.13;2.60;;;;;;;15.95;28.44;95088.78;5073637;28;20469;-78
2023/10/16 14:47:36;;;;;;;3.90;2.57;;;;;;;15.77;32.04;95090.66;5092884;28;20449;-78
2023/10/16 14:50:41;;;;;;;3.10;2.80;;;;;;;15.58;33.05;95096.13;5092828;28;20487;-76
2023/10/16 15:18:05;;;;;;;4.10;3.00;;;;;;;17.07;36.15;95128.25;5090084;28;20585;-75
2023/10/16 15:20:32;;;;;;;3.60;3.30;;;;;;;16.80;33.44;95131.19;5071666;28;20457;-83
2023/10/16 15:23:00;;;;;;;19.23;3.30;;;;;;;16.28;34.09;95140.06;5090143;28;20447;-80
2023/10/16 15:25:26;;;;;;;6.63;3.10;;;;;;;15.74;33.90;95143.91;5089970;28;20443;-78
2023/10/16 15:27:53;;;;;;;3.07;2.87;;;;;;;15.21;34.82;95150.06;5089290;28;20461;-78
2023/10/16 15:30:21;;;;;;;3.27;2.60;;;;;;;14.54;35.80;95151.38;5090086;28;20451;-79
2023/10/16 15:32:47;;;;;;;3.80;2.80;;;;;;;14.21;35.96;95158.03;5054126;28;20442;-79
2023/10/16 15:35:16;;;;;;;7.30;2.93;;;;;;;14.30;35.67;95148.41;5089917;28;20443;-79
2023/10/16 15:37:43;;;;;;;3.07;2.77;;;;;;;14.19;35.87;95163.47;5089891;28;20488;-79
2023/10/16 15:40:15;;;;;;;2.83;2.50;;;;;;;14.22;35.86;95168.44;5089919;28;20448;-79
2023/10/16 15:42:42;;;;;;;6.53;3.60;;;;;;;14.16;36.27;95173.47;5055956;28;20448;-80
2023/10/16 15:45:10;;;;;;;8.13;2.80;;;;;;;14.17;36.40;95175.97;5089874;28;20962;-77
2023/10/16 15:47:36;;;;;;;8.07;4.77;;;;;;;14.12;36.33;95172.09;5090146;28;20440;-79
2023/10/16 15:50:05;;;;;;;15.40;6.87;;;;;;;13.97;36.51;95174.38;5089928;28;20446;-84
2023/10/16 15:52:33;;;;;;;9.33;5.70;;;;;;;13.86;36.85;95183.28;5089533;28;20460;-79
2023/10/16 15:55:00;;;;;;;6.13;4.27;;;;;;;13.86;37.07;95185.06;5089140;28;20447;-76
2023/10/16 15:57:27;;;;;;;8.50;3.37;;;;;;;13.78;36.68;95183.16;5053442;28;20993;-75
2023/10/16 15:59:54;;;;;;;9.30;6.03;;;;;;;13.84;36.92;95190.50;5053231;28;20443;-74
2023/10/16 16:02:20;;;;;;;3.80;3.47;;;;;;;13.75;36.41;95201.06;5088772;28;20742;-75
2023/10/16 16:04:52;;;;;;;4.77;3.30;;;;;;;13.81;37.01;95189.94;5089003;28;20438;-75
2023/10/16 16:07:19;;;;;;;3.87;3.40;;;;;;;13.85;37.08;95197.44;5088915;28;20985;-75
2023/10/16 16:09:48;;;;;;;8.60;4.13;;;;;;;13.92;37.13;95203.00;5089133;28;20502;-73
2023/10/16 16:12:14;;;;;;;7.23;3.50;;;;;;;13.97;37.55;95200.75;5088615;28;20436;-74
2023/10/16 16:14:42;;;;;;;8.63;4.00;;;;;;;13.96;37.48;95204.38;5069526;28;20428;-76
2023/10/16 16:17:10;;;;;;;8.70;4.37;;;;;;;13.78;37.09;95211.34;5089181;28;20546;-77
2023/10/16 16:19:39;;;;;;;7.13;3.80;;;;;;;13.80;37.34;95218.13;5089424;28;20887;-77
2023/10/16 16:22:10;;;;;;;3.90;3.50;;;;;;;13.88;37.59;95217.44;5088896;28;20951;-77
2023/10/16 16:24:39;;;;;;;11.67;3.90;;;;;;;13.95;37.11;95223.81;5088868;28;20486;-77
2023/10/16 16:27:08;;;;;;;4.33;3.93;;;;;;;14.02;38.29;95232.00;5088964;28;20444;-77
2023/10/16 16:29:36;;;;;;;6.80;3.80;;;;;;;14.07;38.24;95233.22;5065868;28;20497;-77
2023/10/16 16:32:04;;;;;;;6.40;4.10;;;;;;;14.07;39.02;95230.56;5068918;28;20449;-77
2023/10/16 16:34:32;;;;;;;10.53;4.47;;;;;;;14.08;38.98;95228.78;5055407;28;20950;-78
2023/10/16 16:36:59;;;;;;;27.80;4.93;;;;;;;14.08;39.40;95229.59;5055045;28;20493;-77
2023/10/16 16:39:28;;;;;;;7.93;4.13;;;;;;;14.06;40.00;95226.28;5057210;28;20466;-78
2023/10/16 16:41:57;;;;;;;8.30;4.60;;;;;;;14.04;39.65;95236.16;5072601;28;20494;-78
2023/10/16 16:44:25;;;;;;;9.83;5.20;;;;;;;14.03;40.34;95231.84;5071821;28;20923;-78
2023/10/16 16:46:55;;;;;;;7.53;4.43;;;;;;;14.02;39.54;95230.19;5075130;28;20807;-78
2023/10/16 16:49:22;;;;;;;8.73;4.33;;;;;;;13.99;39.99;95240.19;5075495;28;21007;-78
2023/10/16 16:51:49;;;;;;;11.23;6.07;;;;;;;13.95;39.89;95237.84;5075397;28;20477;-78
2023/10/16 16:54:16;;;;;;;9.17;5.10;;;;;;;13.91;40.04;95238.28;5039909;28;20996;-78
2023/10/16 16:56:43;;;;;;;15.60;5.90;;;;;;;13.83;40.39;95238.13;5075294;28;20488;-78
2023/10/16 16:59:12;;;;;;;10.17;6.73;;;;;;;13.74;40.22;95246.88;5075194;28;20448;-78
2023/10/16 17:01:45;;;;;;;16.43;6.33;;;;;;;13.61;40.86;95240.13;5075101;28;20501;-77
2023/10/16 17:04:13;;;;;;;10.13;6.03;;;;;;;13.50;40.92;95232.31;5056861;28;20443;-78
2023/10/16 17:06:40;;;;;;;11.83;4.80;;;;;;;13.43;41.38;95236.50;5074631;28;20474;-78
2023/10/16 17:09:09;;;;;;;8.13;4.80;;;;;;;13.34;41.87;95239.97;5074652;28;20478;-78
2023/10/16 17:11:36;;;;;;;6.57;4.37;;;;;;;13.25;42.34;95235.50;5075212;28;20455;-78
2023/10/16 17:14:04;;;;;;;4.67;4.33;;;;;;;13.14;42.94;95233.81;5074777;28;20968;-78
2023/10/16 17:16:31;;;;;;;17.33;4.90;;;;;;;13.07;43.85;95237.16;5074868;28;20506;-78
2023/10/16 17:19:00;;;;;;;10.40;4.60;;;;;;;12.96;44.05;95231.00;5074938;28;20444;-78
2023/10/16 17:21:27;;;;;;;10.90;4.83;;;;;;;12.92;44.21;95240.16;5074340;28;20932;-78
2023/10/16 17:24:00;;;;;;;5.87;4.87;;;;;;;12.83;44.42;95238.34;5074602;28;20454;-78
2023/10/16 17:26:28;;;;;;;15.97;4.43;;;;;;;12.80;44.64;95246.50;5074416;28;20447;-78
2023/10/16 17:28:56;;;;;;;8.10;4.37;;;;;;;12.70;44.75;95243.84;5074795;28;20511;-78
2023/10/16 17:31:24;;;;;;;5.33;4.50;;;;;;;12.63;44.59;95249.78;5074448;28;21092;-78
2023/10/16 17:33:51;;;;;;;7.93;3.97;;;;;;;12.58;44.83;95244.09;5073976;28;20501;-78
2023/10/16 17:36:19;;;;;;;8.00;4.50;;;;;;;12.58;44.37;95254.63;5074200;28;20438;-78
2023/10/16 17:38:46;;;;;;;5.47;4.07;;;;;;;12.46;44.79;95247.78;5038364;28;20473;-77
2023/10/16 17:41:16;;;;;;;5.57;4.40;;;;;;;12.39;44.73;95253.56;5073260;28;20448;-78
2023/10/16 17:43:43;;;;;;;9.00;5.00;;;;;;;12.40;43.80;95255.22;5074090;28;20459;-77
2023/10/16 17:46:10;;;;;;;4.60;4.03;;;;;;;12.36;44.46;95259.09;5073752;28;20912;-77
2023/10/16 17:48:39;;;;;;;5.40;4.13;;;;;;;12.35;44.52;95246.91;5074178;28;20508;-77
2023/10/16 17:51:07;;;;;;;6.20;4.50;;;;;;;12.32;44.35;95251.59;5073974;28;20511;-78
2023/10/16 17:53:36;;;;;;;5.17;4.37;;;;;;;12.26;44.38;95254.75;5074215;28;21136;-78
2023/10/16 17:56:05;;;;;;;6.40;4.80;;;;;;;12.27;45.00;95257.25;5073642;28;20439;-78
2023/10/16 17:58:32;;;;;;;4.90;4.37;;;;;;;12.22;45.39;95256.81;5073483;28;20492;-78
2023/10/16 18:01:00;;;;;;;7.67;4.60;;;;;;;12.19;45.03;95254.47;5073651;28;20928;-77
2023/10/16 18:03:28;;;;;;;6.60;4.10;;;;;;;12.15;44.76;95250.44;5073512;28;20443;-77
2023/10/16 18:05:55;;;;;;;8.30;4.97;;;;;;;12.10;45.06;95247.31;5073541;28;20503;-76
2023/10/16 18:08:24;;;;;;;3.73;3.27;;;;;;;12.09;45.16;95237.78;5073265;28;20449;-77
2023/10/16 18:10:53;;;;;;;4.27;3.40;;;;;;;12.10;44.81;95242.06;5073464;28;20442;-77
2023/10/16 18:13:22;;;;;;;5.23;4.13;;;;;;;11.93;44.21;95240.88;5073362;28;20474;-76
2023/10/16 18:15:50;;;;;;;3.37;3.07;;;;;;;11.96;46.84;95239.78;5059037;28;20499;-79
2023/10/16 18:18:17;;;;;;;3.90;3.07;;;;;;;11.87;44.11;95243.22;5069157;28;20841;-76
2023/10/16 18:20:46;;;;;;;5.30;3.70;;;;;;;11.83;44.72;95239.16;5064464;28;20443;-77
2023/10/16 18:23:14;;;;;;;8.30;3.53;;;;;;;11.81;44.59;95241.06;5067364;28;20772;-76
2023/10/16 18:25:42;;;;;;;5.90;4.67;;;;;;;11.76;45.31;95247.53;5035394;28;20447;-76
2023/10/16 18:28:11;;;;;;;8.50;4.10;;;;;;;11.65;45.53;95244.97;5029599;28;20520;-77
2023/10/16 18:30:38;;;;;;;8.57;4.70;;;;;;;11.65;46.37;95238.88;5037265;28;20472;-77
2023/10/16 18:33:07;;;;;;;15.10;4.17;;;;;;;11.60;45.59;95243.69;5067960;28;20479;-77
2023/10/16 18:35:38;;;;;;;4.37;3.60;;;;;;;11.65;46.62;95249.38;5054983;28;20449;-77
2023/10/16 18:38:05;;;;;;;6.97;5.17;;;;;;;11.56;46.86;95248.34;5054902;28;20840;-77
2023/10/16 18:40:36;;;;;;;5.23;4.00;;;;;;;11.53;45.94;95253.03;5057510;28;20442;-77
2023/10/16 18:43:04;;;;;;;4.00;3.63;;;;;;;11.56;46.06;95255.38;5054452;28;20508;-77
2023/10/16 18:45:32;;;;;;;9.60;4.63;;;;;;;11.54;46.22;95255.53;5068445;28;20936;-77
2023/10/16 18:47:59;;;;;;;10.77;3.20;;;;;;;11.55;46.44;95251.94;5058403;28;20890;-77
2023/10/16 18:50:26;;;;;;;5.80;3.23;;;;;;;11.54;45.76;95260.78;5072392;28;20446;-77
2023/10/16 18:52:53;;;;;;;3.77;3.43;;;;;;;11.54;45.87;95262.56;5059115;28;20441;-77
2023/10/16 18:55:19;;;;;;;4.77;3.50;;;;;;;11.58;47.09;95272.72;5072437;28;20452;-77
2023/10/16 18:57:46;;;;;;;4.40;4.00;;;;;;;11.60;46.98;95273.44;5058955;28;20852;-78
2023/10/16 19:00:15;;;;;;;7.60;4.23;;;;;;;11.99;50.86;95281.63;5072756;28;20445;-77
2023/10/16 19:02:44;;;;;;;4.90;3.80;;;;;;;11.90;48.12;95280.59;5072622;28;20442;-77
2023/10/16 19:05:11;;;;;;;6.27;3.20;;;;;;;11.83;47.42;95274.16;5072562;28;20510;-77
2023/10/16 19:07:39;;;;;;;6.07;4.00;;;;;;;11.73;47.43;95284.59;5053367;28;20446;-75
2023/10/16 19:10:08;;;;;;;4.20;3.80;;;;;;;11.71;47.87;95286.50;5071548;28;20492;-75
2023/10/16 19:12:38;;;;;;;6.87;3.63;;;;;;;11.58;48.17;95287.66;5071585;28;20449;-76
2023/10/16 19:15:05;;;;;;;6.37;4.53;;;;;;;11.55;48.48;95285.25;5069016;28;20827;-76
2023/10/16 19:17:33;;;;;;;5.50;3.70;;;;;;;11.51;48.74;95291.72;5060905;28;20492;-76
2023/10/16 19:20:07;;;;;;;4.13;3.73;;;;;;;11.48;48.65;95296.28;5072172;28;20437;-76
2023/10/16 19:22:34;;;;;;;12.13;4.30;;;;;;;11.47;49.45;95299.03;5071977;28;20444;-75
2023/10/16 19:25:05;;;;;;;7.53;4.67;;;;;;;11.45;49.63;95299.16;5072036;28;20946;-76
2023/10/16 19:27:32;;;;;;;4.20;3.70;;;;;;;11.49;49.95;95297.13;5038035;28;20920;-76
2023/10/16 19:29:59;;;;;;;4.10;3.70;;;;;;;11.46;49.96;95300.84;5059080;28;20468;-77
2023/10/16 19:32:26;;;;;;;4.43;3.77;;;;;;;11.42;50.00;95299.41;5072344;28;20440;-76
2023/10/16 19:34:53;;;;;;;3.50;3.30;;;;;;;11.40;49.34;95296.09;5034314;28;20437;-77